sensor_id;sensor_type;location;lat;lon;timestamp;P1;durP1;ratioP1;P2;durP2;ratioP2
15482;SDS011;7843;50.330;7.312;2023-08-20T00:00:11;7.40;;;4.83;;
15482;SDS011;7843;50.330;7.312;2023-08-20T00:02:39;9.93;;;4.60;;
15482;SDS011;7843;50.330;7.312;2023-08-20T00:05:09;6.55;;;4.30;;
15482;SDS011;7843;50.330;7.312;2023-08-20T00:07:36;5.65;;;3.67;;
15482;SDS011;7843;50.330;7.312;2023-08-20T00:10:03;6.20;;;4.15;;
15482;SDS011;7843;50.330;7.312;2023-08-20T00:12:30;6.07;;;3.95;;
15482;SDS011;7843;50.330;7.312;2023-08-20T00:14:59;5.30;;;3.72;;
15482;SDS011;7843;50.330;7.312;2023-08-20T00:17:37;6.63;;;4.30;;
15482;SDS011;7843;50.330;7.312;2023-08-20T00:20:05;6.07;;;4.20;;
15482;SDS011;7843;50.330;7.312;2023-08-20T00:22:39;7.85;;;4.00;;
15482;SDS011;7843;50.330;7.312;2023-08-20T00:25:08;7.13;;;4.47;;
15482;SDS011;7843;50.330;7.312;2023-08-20T00:27:35;5.93;;;4.00;;
15482;SDS011;7843;50.330;7.312;2023-08-20T00:30:03;6.38;;;4.05;;
15482;SDS011;7843;50.330;7.312;2023-08-20T00:32:30;8.93;;;4.38;;
15482;SDS011;7843;50.330;7.312;2023-08-20T00:34:56;5.80;;;3.88;;
15482;SDS011;7843;50.330;7.312;2023-08-20T00:37:23;7.53;;;4.68;;
15482;SDS011;7843;50.330;7.312;2023-08-20T00:39:51;5.32;;;4.00;;
15482;SDS011;7843;50.330;7.312;2023-08-20T00:42:17;6.17;;;3.90;;
15482;SDS011;7843;50.330;7.312;2023-08-20T00:44:44;8.05;;;4.68;;
15482;SDS011;7843;50.330;7.312;2023-08-20T00:47:11;7.53;;;4.28;;
15482;SDS011;7843;50.330;7.312;2023-08-20T00:49:39;5.50;;;3.63;;
15482;SDS011;7843;50.330;7.312;2023-08-20T00:52:08;5.40;;;3.75;;
15482;SDS011;7843;50.330;7.312;2023-08-20T00:54:36;6.88;;;4.00;;
15482;SDS011;7843;50.330;7.312;2023-08-20T00:57:05;7.80;;;4.40;;
15482;SDS011;7843;50.330;7.312;2023-08-20T00:59:32;6.65;;;3.95;;
15482;SDS011;7843;50.330;7.312;2023-08-20T01:02:00;7.88;;;4.20;;
15482;SDS011;7843;50.330;7.312;2023-08-20T01:04:28;5.00;;;3.78;;
15482;SDS011;7843;50.330;7.312;2023-08-20T01:09:50;5.53;;;4.05;;
15482;SDS011;7843;50.330;7.312;2023-08-20T01:12:24;5.78;;;3.92;;
15482;SDS011;7843;50.330;7.312;2023-08-20T01:14:52;5.88;;;4.25;;
15482;SDS011;7843;50.330;7.312;2023-08-20T01:17:19;6.77;;;4.07;;
15482;SDS011;7843;50.330;7.312;2023-08-20T01:19:46;5.13;;;3.72;;
15482;SDS011;7843;50.330;7.312;2023-08-20T01:30:29;6.10;;;4.15;;
15482;SDS011;7843;50.330;7.312;2023-08-20T01:32:57;8.88;;;5.07;;
15482;SDS011;7843;50.330;7.312;2023-08-20T01:35:25;8.40;;;4.60;;
15482;SDS011;7843;50.330;7.312;2023-08-20T01:37:54;6.60;;;4.25;;
15482;SDS011;7843;50.330;7.312;2023-08-20T01:40:21;7.70;;;4.25;;
15482;SDS011;7843;50.330;7.312;2023-08-20T01:42:48;6.28;;;4.35;;
15482;SDS011;7843;50.330;7.312;2023-08-20T01:45:15;9.05;;;4.60;;
15482;SDS011;7843;50.330;7.312;2023-08-20T01:47:41;9.50;;;5.20;;
15482;SDS011;7843;50.330;7.312;2023-08-20T01:50:09;9.83;;;4.30;;
15482;SDS011;7843;50.330;7.312;2023-08-20T01:52:36;6.03;;;4.68;;
15482;SDS011;7843;50.330;7.312;2023-08-20T01:55:03;7.38;;;4.38;;
15482;SDS011;7843;50.330;7.312;2023-08-20T01:57:31;9.43;;;4.63;;
15482;SDS011;7843;50.330;7.312;2023-08-20T01:59:58;8.25;;;4.32;;
15482;SDS011;7843;50.330;7.312;2023-08-20T02:02:25;8.48;;;4.93;;
15482;SDS011;7843;50.330;7.312;2023-08-20T02:04:52;6.70;;;4.50;;
15482;SDS011;7843;50.330;7.312;2023-08-20T02:07:18;7.45;;;4.28;;
15482;SDS011;7843;50.330;7.312;2023-08-20T02:09:45;6.88;;;4.60;;
15482;SDS011;7843;50.330;7.312;2023-08-20T02:12:12;6.80;;;4.65;;
15482;SDS011;7843;50.330;7.312;2023-08-20T02:14:39;7.68;;;4.78;;
15482;SDS011;7843;50.330;7.312;2023-08-20T02:17:06;8.88;;;5.55;;
15482;SDS011;7843;50.330;7.312;2023-08-20T02:19:33;7.78;;;4.97;;
15482;SDS011;7843;50.330;7.312;2023-08-20T02:22:00;7.75;;;5.20;;
15482;SDS011;7843;50.330;7.312;2023-08-20T02:24:27;9.68;;;5.40;;
15482;SDS011;7843;50.330;7.312;2023-08-20T02:26:53;8.35;;;5.20;;
15482;SDS011;7843;50.330;7.312;2023-08-20T02:29:20;9.02;;;5.30;;
15482;SDS011;7843;50.330;7.312;2023-08-20T02:31:47;10.15;;;5.53;;
15482;SDS011;7843;50.330;7.312;2023-08-20T02:34:14;11.43;;;5.53;;
15482;SDS011;7843;50.330;7.312;2023-08-20T02:36:40;9.52;;;5.63;;
15482;SDS011;7843;50.330;7.312;2023-08-20T02:39:07;9.63;;;5.05;;
15482;SDS011;7843;50.330;7.312;2023-08-20T02:41:34;11.73;;;5.30;;
15482;SDS011;7843;50.330;7.312;2023-08-20T02:44:04;12.50;;;6.13;;
15482;SDS011;7843;50.330;7.312;2023-08-20T02:46:31;9.60;;;5.65;;
15482;SDS011;7843;50.330;7.312;2023-08-20T02:48:57;13.93;;;6.32;;
15482;SDS011;7843;50.330;7.312;2023-08-20T02:51:24;15.00;;;7.00;;
15482;SDS011;7843;50.330;7.312;2023-08-20T02:53:51;15.27;;;6.90;;
15482;SDS011;7843;50.330;7.312;2023-08-20T02:56:17;15.82;;;6.70;;
15482;SDS011;7843;50.330;7.312;2023-08-20T02:58:44;12.60;;;6.13;;
15482;SDS011;7843;50.330;7.312;2023-08-20T03:01:21;12.20;;;6.55;;
15482;SDS011;7843;50.330;7.312;2023-08-20T03:03:49;12.95;;;6.45;;
15482;SDS011;7843;50.330;7.312;2023-08-20T03:06:15;11.97;;;6.70;;
15482;SDS011;7843;50.330;7.312;2023-08-20T03:08:43;16.00;;;6.40;;
15482;SDS011;7843;50.330;7.312;2023-08-20T03:11:10;16.15;;;6.25;;
15482;SDS011;7843;50.330;7.312;2023-08-20T03:13:36;15.48;;;6.60;;
15482;SDS011;7843;50.330;7.312;2023-08-20T03:16:03;16.35;;;6.43;;
15482;SDS011;7843;50.330;7.312;2023-08-20T03:18:30;15.57;;;6.50;;
15482;SDS011;7843;50.330;7.312;2023-08-20T03:20:57;16.70;;;7.57;;
15482;SDS011;7843;50.330;7.312;2023-08-20T03:23:23;14.38;;;6.97;;
15482;SDS011;7843;50.330;7.312;2023-08-20T03:25:50;13.00;;;6.20;;
15482;SDS011;7843;50.330;7.312;2023-08-20T03:28:18;17.02;;;7.00;;
15482;SDS011;7843;50.330;7.312;2023-08-20T03:30:45;13.10;;;6.10;;
15482;SDS011;7843;50.330;7.312;2023-08-20T03:33:12;14.45;;;6.25;;
15482;SDS011;7843;50.330;7.312;2023-08-20T03:35:39;12.70;;;5.93;;
15482;SDS011;7843;50.330;7.312;2023-08-20T03:38:05;10.95;;;5.75;;
15482;SDS011;7843;50.330;7.312;2023-08-20T03:40:32;11.77;;;5.93;;
15482;SDS011;7843;50.330;7.312;2023-08-20T03:42:59;11.73;;;5.33;;
15482;SDS011;7843;50.330;7.312;2023-08-20T03:45:26;8.95;;;4.63;;
15482;SDS011;7843;50.330;7.312;2023-08-20T03:47:52;6.95;;;4.20;;
15482;SDS011;7843;50.330;7.312;2023-08-20T03:50:19;6.53;;;4.18;;
15482;SDS011;7843;50.330;7.312;2023-08-20T03:52:46;5.63;;;3.97;;
15482;SDS011;7843;50.330;7.312;2023-08-20T03:55:12;6.80;;;4.40;;
15482;SDS011;7843;50.330;7.312;2023-08-20T03:57:39;7.85;;;4.70;;
15482;SDS011;7843;50.330;7.312;2023-08-20T04:00:06;7.65;;;4.50;;
15482;SDS011;7843;50.330;7.312;2023-08-20T04:02:35;9.73;;;4.47;;
15482;SDS011;7843;50.330;7.312;2023-08-20T04:05:02;6.95;;;4.13;;
15482;SDS011;7843;50.330;7.312;2023-08-20T04:07:30;9.65;;;4.45;;
15482;SDS011;7843;50.330;7.312;2023-08-20T04:09:57;9.73;;;4.35;;
15482;SDS011;7843;50.330;7.312;2023-08-20T04:12:23;7.63;;;3.85;;
15482;SDS011;7843;50.330;7.312;2023-08-20T04:14:50;7.15;;;3.85;;
15482;SDS011;7843;50.330;7.312;2023-08-20T04:17:17;6.97;;;4.07;;
15482;SDS011;7843;50.330;7.312;2023-08-20T04:19:43;9.13;;;3.90;;
15482;SDS011;7843;50.330;7.312;2023-08-20T04:22:10;6.25;;;3.28;;
15482;SDS011;7843;50.330;7.312;2023-08-20T04:24:37;8.50;;;4.07;;
15482;SDS011;7843;50.330;7.312;2023-08-20T04:27:03;7.75;;;4.03;;
15482;SDS011;7843;50.330;7.312;2023-08-20T04:29:30;8.05;;;3.80;;
15482;SDS011;7843;50.330;7.312;2023-08-20T04:31:57;6.25;;;3.70;;
15482;SDS011;7843;50.330;7.312;2023-08-20T04:34:23;7.13;;;4.10;;
15482;SDS011;7843;50.330;7.312;2023-08-20T04:36:50;9.70;;;3.63;;
15482;SDS011;7843;50.330;7.312;2023-08-20T04:39:18;5.45;;;3.38;;
15482;SDS011;7843;50.330;7.312;2023-08-20T04:41:45;8.32;;;3.95;;
15482;SDS011;7843;50.330;7.312;2023-08-20T04:44:11;6.00;;;3.90;;
15482;SDS011;7843;50.330;7.312;2023-08-20T04:46:39;6.70;;;3.78;;
15482;SDS011;7843;50.330;7.312;2023-08-20T04:49:05;7.03;;;4.33;;
15482;SDS011;7843;50.330;7.312;2023-08-20T04:51:32;7.10;;;3.80;;
15482;SDS011;7843;50.330;7.312;2023-08-20T04:53:59;5.43;;;3.40;;
15482;SDS011;7843;50.330;7.312;2023-08-20T04:56:25;6.10;;;3.72;;
15482;SDS011;7843;50.330;7.312;2023-08-20T04:58:52;11.05;;;4.38;;
15482;SDS011;7843;50.330;7.312;2023-08-20T05:01:19;5.57;;;3.55;;
15482;SDS011;7843;50.330;7.312;2023-08-20T05:03:45;5.32;;;3.13;;
15482;SDS011;7843;50.330;7.312;2023-08-20T05:06:12;4.18;;;3.20;;
15482;SDS011;7843;50.330;7.312;2023-08-20T05:08:39;4.28;;;2.75;;
15482;SDS011;7843;50.330;7.312;2023-08-20T05:11:05;5.20;;;3.38;;
15482;SDS011;7843;50.330;7.312;2023-08-20T05:13:32;7.13;;;3.13;;
15482;SDS011;7843;50.330;7.312;2023-08-20T05:15:59;5.22;;;3.22;;
15482;SDS011;7843;50.330;7.312;2023-08-20T05:18:25;8.23;;;3.60;;
15482;SDS011;7843;50.330;7.312;2023-08-20T05:20:53;5.03;;;3.25;;
15482;SDS011;7843;50.330;7.312;2023-08-20T05:23:19;4.43;;;2.92;;
15482;SDS011;7843;50.330;7.312;2023-08-20T05:25:46;3.92;;;2.78;;
15482;SDS011;7843;50.330;7.312;2023-08-20T05:28:13;7.32;;;3.20;;
15482;SDS011;7843;50.330;7.312;2023-08-20T05:30:39;7.57;;;2.93;;
15482;SDS011;7843;50.330;7.312;2023-08-20T05:33:06;5.45;;;3.28;;
15482;SDS011;7843;50.330;7.312;2023-08-20T05:35:33;5.13;;;3.35;;
15482;SDS011;7843;50.330;7.312;2023-08-20T05:38:00;5.85;;;3.65;;
15482;SDS011;7843;50.330;7.312;2023-08-20T05:40:27;6.68;;;3.70;;
15482;SDS011;7843;50.330;7.312;2023-08-20T05:42:53;5.47;;;3.40;;
15482;SDS011;7843;50.330;7.312;2023-08-20T05:45:20;4.88;;;3.20;;
15482;SDS011;7843;50.330;7.312;2023-08-20T05:47:47;8.10;;;3.77;;
15482;SDS011;7843;50.330;7.312;2023-08-20T05:50:13;5.10;;;3.10;;
15482;SDS011;7843;50.330;7.312;2023-08-20T05:52:40;3.63;;;2.88;;
15482;SDS011;7843;50.330;7.312;2023-08-20T05:55:07;6.85;;;3.40;;
15482;SDS011;7843;50.330;7.312;2023-08-20T05:57:34;6.88;;;3.53;;
15482;SDS011;7843;50.330;7.312;2023-08-20T06:00:03;5.75;;;3.20;;
15482;SDS011;7843;50.330;7.312;2023-08-20T06:02:30;7.93;;;3.72;;
15482;SDS011;7843;50.330;7.312;2023-08-20T06:04:57;4.97;;;3.30;;
15482;SDS011;7843;50.330;7.312;2023-08-20T06:07:24;6.55;;;3.53;;
15482;SDS011;7843;50.330;7.312;2023-08-20T06:09:51;4.43;;;3.38;;
15482;SDS011;7843;50.330;7.312;2023-08-20T06:12:17;5.80;;;3.33;;
15482;SDS011;7843;50.330;7.312;2023-08-20T06:14:44;9.00;;;2.67;;
15482;SDS011;7843;50.330;7.312;2023-08-20T06:17:11;6.63;;;3.10;;
15482;SDS011;7843;50.330;7.312;2023-08-20T06:19:37;4.53;;;3.13;;
15482;SDS011;7843;50.330;7.312;2023-08-20T06:22:04;6.32;;;3.63;;
15482;SDS011;7843;50.330;7.312;2023-08-20T06:24:31;5.60;;;3.60;;
15482;SDS011;7843;50.330;7.312;2023-08-20T06:26:57;6.00;;;3.53;;
15482;SDS011;7843;50.330;7.312;2023-08-20T06:29:24;6.75;;;3.75;;
15482;SDS011;7843;50.330;7.312;2023-08-20T06:31:51;9.03;;;4.07;;
15482;SDS011;7843;50.330;7.312;2023-08-20T06:34:18;9.95;;;4.13;;
15482;SDS011;7843;50.330;7.312;2023-08-20T06:36:44;7.88;;;4.47;;
15482;SDS011;7843;50.330;7.312;2023-08-20T06:39:11;7.05;;;5.10;;
15482;SDS011;7843;50.330;7.312;2023-08-20T06:41:38;9.88;;;5.55;;
15482;SDS011;7843;50.330;7.312;2023-08-20T06:44:05;9.73;;;5.57;;
15482;SDS011;7843;50.330;7.312;2023-08-20T06:46:31;7.47;;;5.38;;
15482;SDS011;7843;50.330;7.312;2023-08-20T06:48:58;8.90;;;5.27;;
15482;SDS011;7843;50.330;7.312;2023-08-20T06:51:25;9.93;;;5.72;;
15482;SDS011;7843;50.330;7.312;2023-08-20T06:53:53;8.40;;;5.38;;
15482;SDS011;7843;50.330;7.312;2023-08-20T06:56:23;8.63;;;5.00;;
15482;SDS011;7843;50.330;7.312;2023-08-20T06:58:50;7.72;;;4.95;;
15482;SDS011;7843;50.330;7.312;2023-08-20T07:01:17;7.20;;;4.72;;
15482;SDS011;7843;50.330;7.312;2023-08-20T07:03:44;6.67;;;4.23;;
15482;SDS011;7843;50.330;7.312;2023-08-20T07:06:11;10.60;;;5.65;;
15482;SDS011;7843;50.330;7.312;2023-08-20T07:08:40;8.38;;;4.85;;
15482;SDS011;7843;50.330;7.312;2023-08-20T07:11:07;11.53;;;5.20;;
15482;SDS011;7843;50.330;7.312;2023-08-20T07:13:34;9.40;;;5.18;;
15482;SDS011;7843;50.330;7.312;2023-08-20T07:16:01;8.13;;;4.85;;
15482;SDS011;7843;50.330;7.312;2023-08-20T07:18:28;7.97;;;5.40;;
15482;SDS011;7843;50.330;7.312;2023-08-20T07:20:55;8.93;;;5.22;;
15482;SDS011;7843;50.330;7.312;2023-08-20T07:23:22;6.88;;;4.20;;
15482;SDS011;7843;50.330;7.312;2023-08-20T07:25:49;9.15;;;5.13;;
15482;SDS011;7843;50.330;7.312;2023-08-20T07:28:18;9.35;;;5.20;;
15482;SDS011;7843;50.330;7.312;2023-08-20T07:31:05;7.78;;;4.93;;
15482;SDS011;7843;50.330;7.312;2023-08-20T07:33:32;7.85;;;5.03;;
15482;SDS011;7843;50.330;7.312;2023-08-20T07:35:58;9.25;;;4.93;;
15482;SDS011;7843;50.330;7.312;2023-08-20T07:38:25;8.82;;;5.72;;
15482;SDS011;7843;50.330;7.312;2023-08-20T07:40:51;8.23;;;5.80;;
15482;SDS011;7843;50.330;7.312;2023-08-20T07:43:18;8.48;;;5.30;;
15482;SDS011;7843;50.330;7.312;2023-08-20T07:45:45;7.43;;;5.30;;
15482;SDS011;7843;50.330;7.312;2023-08-20T07:48:11;9.10;;;4.97;;
15482;SDS011;7843;50.330;7.312;2023-08-20T07:50:39;9.35;;;5.28;;
15482;SDS011;7843;50.330;7.312;2023-08-20T07:53:06;6.85;;;4.82;;
15482;SDS011;7843;50.330;7.312;2023-08-20T07:55:32;9.20;;;5.50;;
15482;SDS011;7843;50.330;7.312;2023-08-20T07:57:59;8.75;;;4.95;;
15482;SDS011;7843;50.330;7.312;2023-08-20T08:00:26;7.70;;;5.22;;
15482;SDS011;7843;50.330;7.312;2023-08-20T08:02:52;7.85;;;4.80;;
15482;SDS011;7843;50.330;7.312;2023-08-20T08:05:19;8.82;;;5.43;;
15482;SDS011;7843;50.330;7.312;2023-08-20T08:07:46;12.27;;;5.03;;
15482;SDS011;7843;50.330;7.312;2023-08-20T08:10:12;6.47;;;4.45;;
15482;SDS011;7843;50.330;7.312;2023-08-20T08:12:39;6.65;;;4.07;;
15482;SDS011;7843;50.330;7.312;2023-08-20T08:15:06;5.85;;;4.10;;
15482;SDS011;7843;50.330;7.312;2023-08-20T08:17:33;7.43;;;4.60;;
15482;SDS011;7843;50.330;7.312;2023-08-20T08:20:00;5.88;;;3.80;;
15482;SDS011;7843;50.330;7.312;2023-08-20T08:22:26;6.05;;;4.03;;
15482;SDS011;7843;50.330;7.312;2023-08-20T08:24:53;5.40;;;3.97;;
15482;SDS011;7843;50.330;7.312;2023-08-20T08:27:20;4.97;;;3.63;;
15482;SDS011;7843;50.330;7.312;2023-08-20T08:29:46;4.45;;;3.47;;
15482;SDS011;7843;50.330;7.312;2023-08-20T08:32:14;6.43;;;3.47;;
15482;SDS011;7843;50.330;7.312;2023-08-20T08:34:41;7.68;;;3.17;;
15482;SDS011;7843;50.330;7.312;2023-08-20T08:37:07;4.78;;;3.33;;
15482;SDS011;7843;50.330;7.312;2023-08-20T08:39:34;3.35;;;2.92;;
15482;SDS011;7843;50.330;7.312;2023-08-20T08:42:01;7.70;;;3.53;;
15482;SDS011;7843;50.330;7.312;2023-08-20T08:44:33;4.85;;;3.17;;
15482;SDS011;7843;50.330;7.312;2023-08-20T08:47:03;4.63;;;2.67;;
15482;SDS011;7843;50.330;7.312;2023-08-20T08:49:33;4.30;;;2.70;;
15482;SDS011;7843;50.330;7.312;2023-08-20T08:52:00;4.47;;;2.80;;
15482;SDS011;7843;50.330;7.312;2023-08-20T08:54:30;4.72;;;3.05;;
15482;SDS011;7843;50.330;7.312;2023-08-20T08:56:59;6.55;;;2.88;;
15482;SDS011;7843;50.330;7.312;2023-08-20T08:59:26;5.43;;;2.80;;
15482;SDS011;7843;50.330;7.312;2023-08-20T09:01:53;4.20;;;2.78;;
15482;SDS011;7843;50.330;7.312;2023-08-20T09:04:23;5.30;;;3.28;;
15482;SDS011;7843;50.330;7.312;2023-08-20T09:06:50;4.95;;;2.60;;
15482;SDS011;7843;50.330;7.312;2023-08-20T09:09:19;5.15;;;2.60;;
15482;SDS011;7843;50.330;7.312;2023-08-20T09:11:46;5.18;;;2.83;;
15482;SDS011;7843;50.330;7.312;2023-08-20T09:14:20;5.10;;;3.22;;
15482;SDS011;7843;50.330;7.312;2023-08-20T09:16:53;4.95;;;3.05;;
15482;SDS011;7843;50.330;7.312;2023-08-20T09:19:29;5.40;;;3.15;;
15482;SDS011;7843;50.330;7.312;2023-08-20T09:22:01;6.55;;;3.00;;
15482;SDS011;7843;50.330;7.312;2023-08-20T09:24:34;5.70;;;2.70;;
15482;SDS011;7843;50.330;7.312;2023-08-20T09:27:08;5.75;;;3.15;;
15482;SDS011;7843;50.330;7.312;2023-08-20T09:29:52;3.47;;;2.88;;
15482;SDS011;7843;50.330;7.312;2023-08-20T09:32:25;4.33;;;2.57;;
15482;SDS011;7843;50.330;7.312;2023-08-20T09:34:53;3.83;;;2.95;;
15482;SDS011;7843;50.330;7.312;2023-08-20T09:37:22;3.00;;;2.40;;
15482;SDS011;7843;50.330;7.312;2023-08-20T09:39:50;3.40;;;2.10;;
15482;SDS011;7843;50.330;7.312;2023-08-20T09:42:17;4.80;;;1.92;;
15482;SDS011;7843;50.330;7.312;2023-08-20T09:44:45;3.57;;;2.50;;
15482;SDS011;7843;50.330;7.312;2023-08-20T09:47:14;4.30;;;2.22;;
15482;SDS011;7843;50.330;7.312;2023-08-20T09:49:43;4.32;;;2.70;;
15482;SDS011;7843;50.330;7.312;2023-08-20T09:52:17;4.35;;;2.60;;
15482;SDS011;7843;50.330;7.312;2023-08-20T09:54:58;4.10;;;2.38;;
15482;SDS011;7843;50.330;7.312;2023-08-20T09:57:37;3.90;;;2.63;;
15482;SDS011;7843;50.330;7.312;2023-08-20T10:00:06;5.68;;;2.72;;
15482;SDS011;7843;50.330;7.312;2023-08-20T10:02:37;4.32;;;2.90;;
15482;SDS011;7843;50.330;7.312;2023-08-20T10:05:07;4.40;;;3.20;;
15482;SDS011;7843;50.330;7.312;2023-08-20T10:07:35;5.43;;;3.40;;
15482;SDS011;7843;50.330;7.312;2023-08-20T10:10:09;4.35;;;2.88;;
15482;SDS011;7843;50.330;7.312;2023-08-20T10:12:39;5.10;;;3.20;;
15482;SDS011;7843;50.330;7.312;2023-08-20T10:15:08;6.40;;;2.80;;
15482;SDS011;7843;50.330;7.312;2023-08-20T10:17:37;5.23;;;2.83;;
15482;SDS011;7843;50.330;7.312;2023-08-20T10:20:06;5.43;;;2.90;;
15482;SDS011;7843;50.330;7.312;2023-08-20T10:25:05;5.15;;;3.08;;
15482;SDS011;7843;50.330;7.312;2023-08-20T10:27:36;4.30;;;2.97;;
15482;SDS011;7843;50.330;7.312;2023-08-20T10:30:07;3.57;;;2.67;;
15482;SDS011;7843;50.330;7.312;2023-08-20T10:35:17;4.20;;;2.97;;
15482;SDS011;7843;50.330;7.312;2023-08-20T10:46:20;5.70;;;3.08;;
15482;SDS011;7843;50.330;7.312;2023-08-20T10:48:49;3.77;;;2.77;;
15482;SDS011;7843;50.330;7.312;2023-08-20T10:51:18;4.63;;;2.60;;
15482;SDS011;7843;50.330;7.312;2023-08-20T10:56:39;4.80;;;2.78;;
15482;SDS011;7843;50.330;7.312;2023-08-20T10:59:27;5.13;;;3.03;;
15482;SDS011;7843;50.330;7.312;2023-08-20T11:01:56;8.00;;;3.40;;
15482;SDS011;7843;50.330;7.312;2023-08-20T11:04:29;3.70;;;2.57;;
15482;SDS011;7843;50.330;7.312;2023-08-20T11:07:00;4.43;;;2.40;;
15482;SDS011;7843;50.330;7.312;2023-08-20T11:09:28;3.47;;;2.38;;
15482;SDS011;7843;50.330;7.312;2023-08-20T11:11:56;3.80;;;2.47;;
15482;SDS011;7843;50.330;7.312;2023-08-20T11:14:23;6.50;;;2.30;;
15482;SDS011;7843;50.330;7.312;2023-08-20T11:16:50;3.60;;;2.30;;
15482;SDS011;7843;50.330;7.312;2023-08-20T11:19:22;3.20;;;2.45;;
15482;SDS011;7843;50.330;7.312;2023-08-20T11:21:49;4.78;;;2.65;;
15482;SDS011;7843;50.330;7.312;2023-08-20T11:24:17;3.97;;;2.83;;
15482;SDS011;7843;50.330;7.312;2023-08-20T11:26:45;3.40;;;2.57;;
15482;SDS011;7843;50.330;7.312;2023-08-20T11:29:13;4.32;;;2.55;;
15482;SDS011;7843;50.330;7.312;2023-08-20T11:31:49;4.18;;;2.50;;
15482;SDS011;7843;50.330;7.312;2023-08-20T11:34:18;4.70;;;2.03;;
15482;SDS011;7843;50.330;7.312;2023-08-20T11:36:45;4.57;;;2.38;;
15482;SDS011;7843;50.330;7.312;2023-08-20T11:39:11;6.20;;;2.25;;
15482;SDS011;7843;50.330;7.312;2023-08-20T11:41:39;4.47;;;2.58;;
15482;SDS011;7843;50.330;7.312;2023-08-20T11:44:09;3.47;;;2.20;;
15482;SDS011;7843;50.330;7.312;2023-08-20T11:46:43;5.25;;;2.40;;
15482;SDS011;7843;50.330;7.312;2023-08-20T11:49:11;3.95;;;2.40;;
15482;SDS011;7843;50.330;7.312;2023-08-20T11:51:40;5.45;;;2.50;;
15482;SDS011;7843;50.330;7.312;2023-08-20T11:54:13;4.00;;;2.47;;
15482;SDS011;7843;50.330;7.312;2023-08-20T11:56:48;3.78;;;2.13;;
15482;SDS011;7843;50.330;7.312;2023-08-20T11:59:17;2.50;;;1.60;;
15482;SDS011;7843;50.330;7.312;2023-08-20T12:01:51;3.65;;;2.25;;
15482;SDS011;7843;50.330;7.312;2023-08-20T12:04:18;2.72;;;2.03;;
15482;SDS011;7843;50.330;7.312;2023-08-20T12:07:00;5.60;;;1.97;;
15482;SDS011;7843;50.330;7.312;2023-08-20T12:09:29;4.55;;;2.33;;
15482;SDS011;7843;50.330;7.312;2023-08-20T12:11:56;3.38;;;2.22;;
15482;SDS011;7843;50.330;7.312;2023-08-20T12:14:25;3.35;;;2.33;;
15482;SDS011;7843;50.330;7.312;2023-08-20T12:16:55;2.95;;;2.08;;
15482;SDS011;7843;50.330;7.312;2023-08-20T12:19:22;3.47;;;2.10;;
15482;SDS011;7843;50.330;7.312;2023-08-20T12:21:49;2.85;;;2.10;;
15482;SDS011;7843;50.330;7.312;2023-08-20T12:24:16;4.88;;;2.10;;
15482;SDS011;7843;50.330;7.312;2023-08-20T12:26:45;4.43;;;1.90;;
15482;SDS011;7843;50.330;7.312;2023-08-20T12:29:11;2.60;;;2.08;;
15482;SDS011;7843;50.330;7.312;2023-08-20T12:31:38;2.47;;;1.92;;
15482;SDS011;7843;50.330;7.312;2023-08-20T12:34:06;5.57;;;2.13;;
15482;SDS011;7843;50.330;7.312;2023-08-20T12:36:34;4.07;;;1.53;;
15482;SDS011;7843;50.330;7.312;2023-08-20T12:39:01;3.33;;;1.83;;
15482;SDS011;7843;50.330;7.312;2023-08-20T12:41:29;5.70;;;1.85;;
15482;SDS011;7843;50.330;7.312;2023-08-20T12:43:58;2.20;;;1.90;;
15482;SDS011;7843;50.330;7.312;2023-08-20T12:46:26;3.63;;;1.60;;
15482;SDS011;7843;50.330;7.312;2023-08-20T12:48:53;3.63;;;2.13;;
15482;SDS011;7843;50.330;7.312;2023-08-20T12:51:20;2.22;;;1.55;;
15482;SDS011;7843;50.330;7.312;2023-08-20T12:53:47;5.07;;;1.80;;
15482;SDS011;7843;50.330;7.312;2023-08-20T12:56:14;3.25;;;2.17;;
15482;SDS011;7843;50.330;7.312;2023-08-20T12:58:42;4.57;;;1.90;;
15482;SDS011;7843;50.330;7.312;2023-08-20T13:01:09;4.23;;;1.73;;
15482;SDS011;7843;50.330;7.312;2023-08-20T13:03:36;4.15;;;1.90;;
15482;SDS011;7843;50.330;7.312;2023-08-20T13:06:03;2.08;;;1.67;;
15482;SDS011;7843;50.330;7.312;2023-08-20T13:08:30;3.05;;;1.80;;
15482;SDS011;7843;50.330;7.312;2023-08-20T13:10:57;2.60;;;2.10;;
15482;SDS011;7843;50.330;7.312;2023-08-20T13:13:26;3.30;;;2.10;;
15482;SDS011;7843;50.330;7.312;2023-08-20T13:15:53;3.53;;;1.85;;
15482;SDS011;7843;50.330;7.312;2023-08-20T13:18:20;4.27;;;2.30;;
15482;SDS011;7843;50.330;7.312;2023-08-20T13:20:53;2.65;;;1.75;;
15482;SDS011;7843;50.330;7.312;2023-08-20T13:23:20;2.95;;;2.17;;
15482;SDS011;7843;50.330;7.312;2023-08-20T13:25:47;3.85;;;2.17;;
15482;SDS011;7843;50.330;7.312;2023-08-20T13:28:13;4.22;;;2.10;;
15482;SDS011;7843;50.330;7.312;2023-08-20T13:30:40;3.67;;;1.70;;
15482;SDS011;7843;50.330;7.312;2023-08-20T13:33:07;3.58;;;2.10;;
15482;SDS011;7843;50.330;7.312;2023-08-20T13:35:34;4.97;;;2.05;;
15482;SDS011;7843;50.330;7.312;2023-08-20T13:38:01;3.60;;;2.20;;
15482;SDS011;7843;50.330;7.312;2023-08-20T13:40:29;4.70;;;2.13;;
15482;SDS011;7843;50.330;7.312;2023-08-20T13:42:55;5.40;;;2.40;;
15482;SDS011;7843;50.330;7.312;2023-08-20T13:45:22;2.92;;;2.30;;
15482;SDS011;7843;50.330;7.312;2023-08-20T13:47:49;4.32;;;2.13;;
15482;SDS011;7843;50.330;7.312;2023-08-20T13:50:15;5.60;;;2.45;;
15482;SDS011;7843;50.330;7.312;2023-08-20T13:52:42;9.30;;;2.77;;
15482;SDS011;7843;50.330;7.312;2023-08-20T13:55:09;2.65;;;2.20;;
15482;SDS011;7843;50.330;7.312;2023-08-20T13:57:36;3.47;;;2.27;;
15482;SDS011;7843;50.330;7.312;2023-08-20T14:00:03;4.75;;;2.35;;
15482;SDS011;7843;50.330;7.312;2023-08-20T14:02:35;3.88;;;2.40;;
15482;SDS011;7843;50.330;7.312;2023-08-20T14:05:02;6.03;;;2.47;;
15482;SDS011;7843;50.330;7.312;2023-08-20T14:07:30;4.10;;;2.25;;
15482;SDS011;7843;50.330;7.312;2023-08-20T14:09:58;3.70;;;2.08;;
15482;SDS011;7843;50.330;7.312;2023-08-20T14:12:25;2.35;;;2.08;;
15482;SDS011;7843;50.330;7.312;2023-08-20T14:14:52;4.40;;;2.10;;
15482;SDS011;7843;50.330;7.312;2023-08-20T14:17:19;2.87;;;2.00;;
15482;SDS011;7843;50.330;7.312;2023-08-20T14:19:46;2.72;;;1.85;;
15482;SDS011;7843;50.330;7.312;2023-08-20T14:22:12;4.32;;;2.33;;
15482;SDS011;7843;50.330;7.312;2023-08-20T14:24:39;4.35;;;2.17;;
15482;SDS011;7843;50.330;7.312;2023-08-20T14:27:06;2.78;;;1.98;;
15482;SDS011;7843;50.330;7.312;2023-08-20T14:29:33;3.67;;;1.95;;
15482;SDS011;7843;50.330;7.312;2023-08-20T14:32:00;4.45;;;2.30;;
15482;SDS011;7843;50.330;7.312;2023-08-20T14:34:27;2.13;;;1.75;;
15482;SDS011;7843;50.330;7.312;2023-08-20T14:36:54;3.95;;;2.20;;
15482;SDS011;7843;50.330;7.312;2023-08-20T14:39:21;8.75;;;2.42;;
15482;SDS011;7843;50.330;7.312;2023-08-20T14:41:47;3.40;;;1.90;;
15482;SDS011;7843;50.330;7.312;2023-08-20T14:44:14;4.82;;;2.05;;
15482;SDS011;7843;50.330;7.312;2023-08-20T14:46:41;2.40;;;2.03;;
15482;SDS011;7843;50.330;7.312;2023-08-20T14:49:08;2.58;;;1.73;;
15482;SDS011;7843;50.330;7.312;2023-08-20T14:51:34;2.50;;;1.85;;
15482;SDS011;7843;50.330;7.312;2023-08-20T14:54:01;3.83;;;1.85;;
15482;SDS011;7843;50.330;7.312;2023-08-20T14:56:29;2.65;;;1.95;;
15482;SDS011;7843;50.330;7.312;2023-08-20T14:58:57;2.63;;;1.80;;
15482;SDS011;7843;50.330;7.312;2023-08-20T15:01:24;2.20;;;1.70;;
15482;SDS011;7843;50.330;7.312;2023-08-20T15:03:50;3.45;;;1.85;;
15482;SDS011;7843;50.330;7.312;2023-08-20T15:06:17;3.17;;;2.10;;
15482;SDS011;7843;50.330;7.312;2023-08-20T15:08:47;4.25;;;1.88;;
15482;SDS011;7843;50.330;7.312;2023-08-20T15:11:14;4.35;;;2.28;;
15482;SDS011;7843;50.330;7.312;2023-08-20T15:13:41;2.58;;;1.67;;
15482;SDS011;7843;50.330;7.312;2023-08-20T15:16:07;3.27;;;1.80;;
15482;SDS011;7843;50.330;7.312;2023-08-20T15:18:34;6.05;;;2.13;;
15482;SDS011;7843;50.330;7.312;2023-08-20T15:21:01;2.53;;;1.85;;
15482;SDS011;7843;50.330;7.312;2023-08-20T15:23:27;3.43;;;1.83;;
15482;SDS011;7843;50.330;7.312;2023-08-20T15:25:55;3.05;;;1.83;;
15482;SDS011;7843;50.330;7.312;2023-08-20T15:28:22;4.22;;;2.30;;
15482;SDS011;7843;50.330;7.312;2023-08-20T15:30:51;3.40;;;2.15;;